createdAt,value
2018-06-21T16:46:49.337Z,24.13
2018-06-21T16:49:17.796Z,24.57
2018-06-21T16:51:46.626Z,25.48
2018-06-21T16:54:15.971Z,26.77
2018-06-21T16:56:44.347Z,26.33
2018-06-21T16:59:12.971Z,25.75
2018-06-21T17:01:41.356Z,25.66
2018-06-21T17:04:09.764Z,25.39
2018-06-21T17:06:38.280Z,25.70
2018-06-21T17:09:09.060Z,25.55
2018-06-21T17:11:37.477Z,24.98
2018-06-21T17:14:05.928Z,25.18
2018-06-21T17:16:34.312Z,25.33
2018-06-21T17:19:02.773Z,25.92
2018-06-21T17:21:31.264Z,26.49
2018-06-21T17:23:59.707Z,26.90
2018-06-21T17:26:29.288Z,23.03
2018-06-21T17:28:57.872Z,20.84
2018-06-21T17:31:26.387Z,18.97
2018-06-21T17:33:55.703Z,18.15
2018-06-21T17:36:24.799Z,17.50
2018-06-21T17:38:54.036Z,17.25
2018-06-21T17:41:23.460Z,16.94
2018-06-21T17:43:52.661Z,17.01
2018-06-21T17:46:21.658Z,16.84
2018-06-21T17:48:51.388Z,16.54
2018-06-21T17:51:19.848Z,16.30
2018-06-21T17:53:48.210Z,16.17
2018-06-21T17:56:16.623Z,16.22
2018-06-21T17:58:45.405Z,16.43
2018-06-21T18:01:13.833Z,16.51
2018-06-21T18:03:42.225Z,16.56
2018-06-21T18:06:10.746Z,16.53
2018-06-21T18:08:39.732Z,16.34
2018-06-21T18:11:08.513Z,16.23
2018-06-21T18:13:36.985Z,16.10
2018-06-21T18:16:05.372Z,15.99
2018-06-21T18:18:33.858Z,15.97
2018-06-21T18:21:03.187Z,15.98
2018-06-21T18:23:31.596Z,15.93
2018-06-21T18:26:00.101Z,15.90
2018-06-21T18:28:28.717Z,15.81
2018-06-21T18:30:57.088Z,15.80
2018-06-21T18:33:25.564Z,15.79
2018-06-21T18:35:54.085Z,15.28
2018-06-21T18:38:22.651Z,14.84
2018-06-21T18:40:51.060Z,14.53
2018-06-21T18:43:19.961Z,14.43
2018-06-21T18:45:48.440Z,14.30
2018-06-21T18:48:16.976Z,14.19
2018-06-21T18:50:45.471Z,14.14
2018-06-21T18:53:13.911Z,14.05
2018-06-21T18:55:42.491Z,14.07
2018-06-21T18:58:11.406Z,14.00
2018-06-21T19:00:39.781Z,13.97
2018-06-21T19:03:08.172Z,13.96
2018-06-21T19:05:36.656Z,13.92
2018-06-21T19:08:10.534Z,13.89
2018-06-21T19:10:44.789Z,13.88
2018-06-21T19:13:13.349Z,13.86
2018-06-21T19:15:42.240Z,13.83
2018-06-21T19:18:12.520Z,13.78
2018-06-21T19:20:41.029Z,13.75
2018-06-21T19:23:09.520Z,13.76
2018-06-21T19:25:38.142Z,13.69
2018-06-21T19:28:06.710Z,13.66
2018-06-21T19:30:41.098Z,13.64
2018-06-21T19:33:09.630Z,13.59
2018-06-21T19:35:38.146Z,13.59
2018-06-21T19:38:06.661Z,13.53
2018-06-21T19:40:35.129Z,13.51
2018-06-21T19:43:03.679Z,13.43
2018-06-21T19:45:32.141Z,13.42
2018-06-21T19:48:01.742Z,13.43
2018-06-21T19:50:30.596Z,13.42
2018-06-21T19:52:59.417Z,13.39
2018-06-21T19:55:28.581Z,13.36
2018-06-21T19:57:57.307Z,13.37
2018-06-21T20:00:26.497Z,13.33
2018-06-21T20:03:01.120Z,13.28
2018-06-21T20:05:30.390Z,13.26
2018-06-21T20:07:59.530Z,13.23
2018-06-21T20:10:27.973Z,13.18
2018-06-21T20:12:56.577Z,13.17
2018-06-21T20:15:25.192Z,13.19
2018-06-21T20:17:53.899Z,13.19
2018-06-21T20:20:27.604Z,13.17
2018-06-21T20:22:56.633Z,13.12
2018-06-21T20:25:25.962Z,13.05
2018-06-21T20:27:54.334Z,12.96
2018-06-21T20:30:22.922Z,12.88
2018-06-21T20:32:51.320Z,12.84
2018-06-21T20:35:19.811Z,12.81
2018-06-21T20:37:48.805Z,12.78
2018-06-21T20:40:17.260Z,12.71
2018-06-21T20:42:45.668Z,12.66
2018-06-21T20:45:15.788Z,12.67
2018-06-21T20:47:44.247Z,12.63
2018-06-21T20:50:13.066Z,12.56
2018-06-21T20:52:41.777Z,12.51
2018-06-21T20:55:11.930Z,12.48
2018-06-21T20:57:40.331Z,12.48
2018-06-21T21:00:09.119Z,12.38
2018-06-21T21:02:37.954Z,12.35
2018-06-21T21:05:13.901Z,12.27
2018-06-21T21:07:42.925Z,12.27
2018-06-21T21:10:12.837Z,12.25
2018-06-21T21:12:41.276Z,12.22
2018-06-21T21:15:11.103Z,12.19
2018-06-21T21:17:40.037Z,12.10
2018-06-21T21:20:08.906Z,12.06
2018-06-21T21:22:38.232Z,12.02
2018-06-21T21:25:06.661Z,12.01
2018-06-21T21:27:35.153Z,11.97
2018-06-21T21:30:03.951Z,11.93
2018-06-21T21:32:32.448Z,11.95
2018-06-21T21:35:00.849Z,11.94
2018-06-21T21:37:29.589Z,11.88
2018-06-21T21:40:01.312Z,11.88
2018-06-21T21:42:30.806Z,11.89
2018-06-21T21:44:59.417Z,11.85
2018-06-21T21:47:27.922Z,11.84
2018-06-21T21:49:56.545Z,11.83
2018-06-21T21:52:25.157Z,11.81
2018-06-21T21:54:53.680Z,11.74
2018-06-21T21:57:23.378Z,11.80
2018-06-21T21:59:51.829Z,11.76
2018-06-21T22:02:21.497Z,11.75
2018-06-21T22:04:49.964Z,11.74
2018-06-21T22:07:18.630Z,11.70
2018-06-21T22:09:47.013Z,11.69
2018-06-21T22:12:15.413Z,11.62
2018-06-21T22:14:43.825Z,11.60
2018-06-21T22:17:12.307Z,11.54
2018-06-21T22:19:40.700Z,11.53
2018-06-21T22:22:09.109Z,11.52
2018-06-21T22:24:37.577Z,11.47
2018-06-21T22:27:06.194Z,11.51
2018-06-21T22:29:34.608Z,11.49
2018-06-21T22:32:03.034Z,11.58
2018-06-21T22:34:31.440Z,11.62
2018-06-21T22:37:00.228Z,11.62
2018-06-21T22:39:28.705Z,11.64
2018-06-21T22:41:57.097Z,11.63
2018-06-21T22:44:25.480Z,11.69
2018-06-21T22:46:54.122Z,11.70
2018-06-21T22:49:22.495Z,11.72
2018-06-21T22:51:50.912Z,11.74
2018-06-21T22:54:19.329Z,11.79
2018-06-21T22:56:47.808Z,11.80
2018-06-21T22:59:16.298Z,11.78
2018-06-21T23:01:44.675Z,11.82
2018-06-21T23:04:13.212Z,11.83
2018-06-21T23:06:41.688Z,11.82
2018-06-21T23:09:10.065Z,11.82
2018-06-21T23:11:38.438Z,11.83
2018-06-21T23:14:07.389Z,11.89
2018-06-21T23:16:35.838Z,11.87
2018-06-21T23:19:15.605Z,11.86
2018-06-21T23:21:44.076Z,11.89
2018-06-21T23:24:12.516Z,11.94
2018-06-21T23:26:41.024Z,11.91
2018-06-21T23:29:09.529Z,11.93
2018-06-21T23:31:37.941Z,11.89
2018-06-21T23:34:06.288Z,11.81
2018-06-21T23:36:34.800Z,11.74
2018-06-21T23:39:03.372Z,11.71
2018-06-21T23:41:31.848Z,11.64
2018-06-21T23:44:00.791Z,11.62
2018-06-21T23:46:29.173Z,11.58
2018-06-21T23:48:57.637Z,11.59
2018-06-21T23:51:26.112Z,11.59
2018-06-21T23:53:54.554Z,11.64
2018-06-21T23:56:23.896Z,11.62
2018-06-21T23:58:52.513Z,11.62
